KMKC/MKC METAR and TAF weather

Enter ICAO airport designator
Station Type Date Time Source
KMKC METAR 2018/12/18 18:54 UTC NOAA

KMKC 181854Z 19010KT 10SM CLR 14/04 A3000 RMK AO2 SLP160 T01440044


Station Type Date Time Source
KMKC Decoded METAR 2018/12/18 18:54 UTC NOAA

KANSAS CITY DOWNTOWN AIRPORT , MO, United States (KMKC) 39-07N 094-36W 227M
Dec 18, 2018 - 01:54 PM EST / 2018.12.18 1854 UTC
Wind: from the S (190 degrees) at 12 MPH (10 KT):0
Visibility: 10 mile(s):0
Sky conditions: clear
Temperature: 57.9 F (14.4 C)
Dew Point: 39.9 F (4.4 C)
Relative Humidity: 50%
Pressure (altimeter): 30 in. Hg (1015 hPa)
ob: KMKC 181854Z 19010KT 10SM CLR 14/04 A3000 RMK AO2 SLP160 T01440044
cycle: 19

Station Type Date Time Source
KMKC TAF 2018/12/18 18:22 UTC NOAA

TAF KMKC 181720Z 1818/1918 19008KT P6SM FEW200
FM182300 18007KT P6SM BKN200
FM190700 20008KT P6SM BKN030
FM191000 20009KT P6SM BKN015


Example: see airport list